createdAt,value
2019-04-03T00:02:06.590Z,96.10
2019-04-03T00:04:36.098Z,96.20
2019-04-03T00:07:06.027Z,96.20
2019-04-03T00:09:36.573Z,96.20
2019-04-03T00:12:06.459Z,96.30
2019-04-03T00:14:36.137Z,96.40
2019-04-03T00:17:05.746Z,96.50
2019-04-03T00:19:35.355Z,96.50
2019-04-03T00:22:05.101Z,96.60
2019-04-03T00:24:34.684Z,96.80
2019-04-03T00:27:04.352Z,96.90
2019-04-03T00:29:33.997Z,96.90
2019-04-03T00:32:03.600Z,97.00
2019-04-03T00:34:33.219Z,97.10
2019-04-03T00:37:02.995Z,97.20
2019-04-03T00:39:32.539Z,97.20
2019-04-03T00:42:02.186Z,97.30
2019-04-03T00:44:32.008Z,97.30
2019-04-03T00:47:01.677Z,97.20
2019-04-03T00:49:31.319Z,97.30
2019-04-03T00:52:01.077Z,97.30
2019-04-03T00:54:31.276Z,97.30
2019-04-03T00:57:01.255Z,97.20
2019-04-03T00:59:30.913Z,97.30
2019-04-03T01:02:00.542Z,97.30
2019-04-03T01:04:30.190Z,97.40
2019-04-03T01:06:59.879Z,97.50
2019-04-03T01:09:29.953Z,97.60
2019-04-03T01:12:00.861Z,97.70
2019-04-03T01:14:31.578Z,97.70
2019-04-03T01:17:03.490Z,97.70
2019-04-03T01:19:32.956Z,97.60
2019-04-03T01:22:02.576Z,97.60
2019-04-03T01:24:32.170Z,97.70
2019-04-03T01:27:01.862Z,97.70
2019-04-03T01:29:31.585Z,97.80
2019-04-03T01:32:01.175Z,97.80
2019-04-03T01:34:30.812Z,97.80
2019-04-03T01:37:00.492Z,97.80
2019-04-03T01:39:30.159Z,98.00
2019-04-03T01:41:59.767Z,98.10
2019-04-03T01:44:29.372Z,98.10
2019-04-03T01:46:58.983Z,98.20
2019-04-03T01:49:28.911Z,98.10
2019-04-03T01:52:00.304Z,98.20
2019-04-03T01:54:29.751Z,98.30
2019-04-03T01:56:59.328Z,98.40
2019-04-03T01:59:28.961Z,98.50
2019-04-03T02:01:58.547Z,98.30
2019-04-03T02:04:28.179Z,98.30
2019-04-03T02:06:57.821Z,98.30
2019-04-03T02:09:27.420Z,98.30
2019-04-03T02:11:57.018Z,98.40
2019-04-03T02:14:26.639Z,98.30
2019-04-03T02:16:56.174Z,98.50
2019-04-03T02:19:26.529Z,98.50
2019-04-03T02:21:57.987Z,98.60
2019-04-03T02:24:27.483Z,98.70
2019-04-03T02:26:57.123Z,98.70
2019-04-03T02:29:26.717Z,98.80
2019-04-03T02:31:56.511Z,98.80
2019-04-03T02:34:26.129Z,98.80
2019-04-03T02:36:55.748Z,99.00
2019-04-03T02:39:27.058Z,99.10
2019-04-03T02:41:56.665Z,99.20
2019-04-03T02:44:26.267Z,99.10
2019-04-03T02:46:59.766Z,99.20
2019-04-03T02:49:27.384Z,99.30
2019-04-03T02:51:57.630Z,99.20
2019-04-03T02:54:29.718Z,99.20
2019-04-03T02:56:59.950Z,99.30
2019-04-03T02:59:29.734Z,99.40
2019-04-03T03:01:59.454Z,99.30
2019-04-03T03:04:29.109Z,99.40
2019-04-03T03:06:58.782Z,99.30
2019-04-03T03:09:28.876Z,99.20
2019-04-03T03:11:58.653Z,99.30
2019-04-03T03:14:29.749Z,99.40
2019-04-03T03:17:00.415Z,99.30
2019-04-03T03:19:32.982Z,99.40
2019-04-03T03:22:01.786Z,99.30
2019-04-03T03:24:32.839Z,99.30
2019-04-03T03:27:03.376Z,99.30
2019-04-03T03:29:33.871Z,99.20
2019-04-03T03:32:13.281Z,99.20
2019-04-03T03:34:50.933Z,99.20
2019-04-03T03:37:06.392Z,99.30
2019-04-03T03:39:37.072Z,99.30
2019-04-03T03:42:06.844Z,99.30
2019-04-03T03:44:37.442Z,99.40
2019-04-03T03:47:08.092Z,99.40
2019-04-03T03:49:38.118Z,99.50
2019-04-03T03:52:07.884Z,99.40
2019-04-03T03:54:38.752Z,99.50
2019-04-03T03:57:08.797Z,99.60
2019-04-03T03:59:39.960Z,99.50
2019-04-03T04:02:10.207Z,99.40
2019-04-03T04:04:40.732Z,99.40
2019-04-03T04:07:10.396Z,99.50
2019-04-03T04:09:40.273Z,99.40
2019-04-03T04:12:09.960Z,99.40
2019-04-03T04:14:40.671Z,99.30
2019-04-03T04:17:15.795Z,99.50
2019-04-03T04:19:41.655Z,99.30
2019-04-03T04:22:15.556Z,99.20
2019-04-03T04:24:42.882Z,99.30
2019-04-03T04:27:12.820Z,99.40
2019-04-03T04:29:43.442Z,99.20
2019-04-03T04:32:14.999Z,99.30
2019-04-03T04:34:44.400Z,99.30
2019-04-03T04:37:14.322Z,99.30
2019-04-03T04:39:44.007Z,99.10
2019-04-03T04:42:13.704Z,99.10
2019-04-03T04:44:43.387Z,99.00
2019-04-03T04:47:15.306Z,98.90
2019-04-03T04:49:44.489Z,98.80
2019-04-03T04:52:14.095Z,98.70
2019-04-03T04:54:44.032Z,98.50
2019-04-03T04:57:13.726Z,98.40
2019-04-03T04:59:45.182Z,98.10
2019-04-03T05:02:14.835Z,98.10
2019-04-03T05:04:44.549Z,97.90
2019-04-03T05:07:16.503Z,97.90
2019-04-03T05:09:45.613Z,97.80
2019-04-03T05:12:15.304Z,97.60
2019-04-03T05:14:45.156Z,97.50
2019-04-03T05:17:14.793Z,97.20
2019-04-03T05:19:44.602Z,97.00
2019-04-03T05:22:14.264Z,97.00
2019-04-03T05:24:44.111Z,96.70
2019-04-03T05:27:13.781Z,96.60
2019-04-03T05:29:43.496Z,96.40
2019-04-03T05:32:13.177Z,96.30
2019-04-03T05:34:43.971Z,96.10
2019-04-03T05:37:15.264Z,96.20
2019-04-03T05:39:44.914Z,96.00
2019-04-03T05:42:14.615Z,96.00
2019-04-03T05:44:44.190Z,96.00
2019-04-03T05:47:13.798Z,96.10
2019-04-03T05:49:46.313Z,96.00
2019-04-03T05:52:14.905Z,96.10
2019-04-03T05:54:44.975Z,95.90
2019-04-03T05:57:14.662Z,95.90
2019-04-03T05:59:57.926Z,95.90
2019-04-03T06:02:20.158Z,95.40
2019-04-03T06:04:48.072Z,95.40
2019-04-03T06:07:18.605Z,95.20
2019-04-03T06:09:48.882Z,95.10
2019-04-03T06:12:19.275Z,95.10
2019-04-03T06:14:50.503Z,94.80
2019-04-03T06:17:20.966Z,94.90
2019-04-03T06:19:50.643Z,94.80
2019-04-03T06:22:21.968Z,94.70
2019-04-03T06:24:51.769Z,94.60
2019-04-03T06:27:21.357Z,94.60
2019-04-03T06:29:53.454Z,94.40
2019-04-03T06:32:24.406Z,94.10
2019-04-03T06:34:53.660Z,94.00
2019-04-03T06:37:23.305Z,93.80
2019-04-03T06:39:53.186Z,93.70
2019-04-03T06:42:23.268Z,93.10
2019-04-03T06:44:53.950Z,92.90
2019-04-03T06:47:24.012Z,93.00
2019-04-03T06:49:53.729Z,93.00
2019-04-03T06:52:23.397Z,92.30
2019-04-03T06:54:53.054Z,92.30
2019-04-03T06:57:23.027Z,92.00
2019-04-03T06:59:52.706Z,92.10
2019-04-03T07:02:22.527Z,91.80
2019-04-03T07:04:52.345Z,91.80
2019-04-03T07:07:32.074Z,91.80
2019-04-03T07:09:53.461Z,91.50
2019-04-03T07:12:25.902Z,91.40
2019-04-03T07:14:55.488Z,91.30
2019-04-03T07:17:25.137Z,90.90
2019-04-03T07:19:54.856Z,91.20
2019-04-03T07:22:27.106Z,91.30
2019-04-03T07:24:56.257Z,90.90
2019-04-03T07:27:25.901Z,90.90
2019-04-03T07:29:55.548Z,91.00
2019-04-03T07:32:26.158Z,91.00
2019-04-03T07:34:55.954Z,90.60
2019-04-03T07:37:25.664Z,90.90
2019-04-03T07:39:58.108Z,91.20
2019-04-03T07:42:26.713Z,90.40
2019-04-03T07:44:56.388Z,90.70
2019-04-03T07:47:25.985Z,90.50
2019-04-03T07:49:55.641Z,90.20
2019-04-03T07:52:25.481Z,90.30
2019-04-03T07:54:56.663Z,90.20
2019-04-03T07:57:26.887Z,90.30
2019-04-03T07:59:57.730Z,90.20
2019-04-03T08:02:28.119Z,90.40
2019-04-03T08:05:00.062Z,90.40
2019-04-03T08:07:29.190Z,90.50
2019-04-03T08:09:59.341Z,90.20
2019-04-03T08:12:29.080Z,90.10
2019-04-03T08:14:59.177Z,90.00
2019-04-03T08:17:28.772Z,90.00
2019-04-03T08:19:58.385Z,88.80
2019-04-03T08:22:28.056Z,89.00
2019-04-03T08:24:57.813Z,90.20
2019-04-03T08:27:27.408Z,90.00
2019-04-03T08:29:57.096Z,89.90
2019-04-03T08:32:26.690Z,89.80
2019-04-03T08:34:56.688Z,90.00
2019-04-03T08:37:30.881Z,90.00
2019-04-03T08:39:58.845Z,90.20
2019-04-03T08:42:29.829Z,89.80
2019-04-03T08:44:59.887Z,89.90
2019-04-03T08:47:29.844Z,89.50
2019-04-03T08:50:01.576Z,89.90
2019-04-03T08:52:30.877Z,89.90
2019-04-03T08:55:00.586Z,89.80
2019-04-03T08:57:30.535Z,89.20
2019-04-03T09:00:01.311Z,89.20
2019-04-03T09:02:31.177Z,88.20
2019-04-03T09:05:01.070Z,88.60
2019-04-03T09:07:30.665Z,88.50
2019-04-03T09:10:00.918Z,88.30
2019-04-03T09:12:31.151Z,88.60
2019-04-03T09:15:00.933Z,87.60
2019-04-03T09:17:33.538Z,86.30
2019-04-03T09:20:01.894Z,86.80
2019-04-03T09:22:31.631Z,86.90
2019-04-03T09:25:01.208Z,86.40
2019-04-03T09:27:30.804Z,86.30
2019-04-03T09:30:00.368Z,87.20
2019-04-03T09:32:30.085Z,86.00
2019-04-03T09:35:01.435Z,86.30
2019-04-03T09:37:30.867Z,85.00
2019-04-03T09:40:00.664Z,85.40
2019-04-03T09:42:30.475Z,81.60
2019-04-03T09:45:00.068Z,79.00
2019-04-03T09:47:29.831Z,77.70
2019-04-03T09:49:59.675Z,77.70
2019-04-03T09:52:39.406Z,78.50
2019-04-03T09:55:01.022Z,79.50
2019-04-03T09:57:31.380Z,78.20
2019-04-03T10:00:01.678Z,79.30
2019-04-03T10:02:31.309Z,77.70
2019-04-03T10:05:00.911Z,75.80
2019-04-03T10:07:31.854Z,77.30
2019-04-03T10:10:01.911Z,75.90
2019-04-03T10:12:32.369Z,75.70
2019-04-03T10:15:02.288Z,75.70
2019-04-03T10:17:32.273Z,74.70
2019-04-03T10:20:02.035Z,75.70
2019-04-03T10:22:31.643Z,75.80
2019-04-03T10:25:04.813Z,77.30
2019-04-03T10:27:32.599Z,75.40
2019-04-03T10:30:02.205Z,74.20
2019-04-03T10:32:31.979Z,70.60
2019-04-03T10:35:01.622Z,70.60
2019-04-03T10:37:31.276Z,70.30
2019-04-03T10:40:01.210Z,68.50
2019-04-03T10:42:31.811Z,69.40
2019-04-03T10:45:01.472Z,69.00
2019-04-03T10:47:41.368Z,67.30
2019-04-03T10:50:04.881Z,67.40
2019-04-03T10:52:33.861Z,65.50
2019-04-03T10:55:03.627Z,66.90
2019-04-03T10:57:33.962Z,67.40
2019-04-03T11:00:05.442Z,68.70
2019-04-03T11:02:35.490Z,70.20
2019-04-03T11:05:06.141Z,68.30
2019-04-03T11:07:37.898Z,70.30
2019-04-03T11:10:08.998Z,68.90
2019-04-03T11:12:38.612Z,69.60
2019-04-03T11:15:11.510Z,67.80
2019-04-03T11:17:40.544Z,63.00
2019-04-03T11:20:11.179Z,61.40
2019-04-03T11:22:42.770Z,61.20
2019-04-03T11:25:15.189Z,61.70
2019-04-03T11:27:45.618Z,59.80
2019-04-03T11:30:21.548Z,60.60
2019-04-03T11:32:48.324Z,60.30
2019-04-03T11:35:21.081Z,58.50
2019-04-03T11:37:49.604Z,60.80
2019-04-03T11:40:19.439Z,60.80
2019-04-03T11:42:49.082Z,61.80
2019-04-03T11:45:19.322Z,61.30
2019-04-03T11:47:48.974Z,62.70
2019-04-03T11:50:18.982Z,59.40
2019-04-03T11:52:51.238Z,58.90
2019-04-03T11:55:19.926Z,59.40
2019-04-03T11:57:50.002Z,59.40
2019-04-03T12:00:25.780Z,60.30
2019-04-03T12:02:55.634Z,61.40
2019-04-03T12:05:25.425Z,61.40
2019-04-03T12:07:56.555Z,62.60
2019-04-03T12:10:26.418Z,62.30
2019-04-03T12:12:56.543Z,65.30
2019-04-03T12:15:26.164Z,61.70
2019-04-03T12:17:55.771Z,62.00
2019-04-03T12:20:25.366Z,59.30
2019-04-03T12:22:55.726Z,60.60
2019-04-03T12:25:25.463Z,59.40
2019-04-03T12:27:55.078Z,60.30
2019-04-03T12:30:26.380Z,58.10
2019-04-03T12:32:56.024Z,55.90
2019-04-03T12:35:25.650Z,56.80
2019-04-03T12:37:55.656Z,59.40
2019-04-03T12:40:25.298Z,52.80
2019-04-03T12:42:55.428Z,51.30
2019-04-03T12:45:26.838Z,49.40
2019-04-03T12:47:56.672Z,48.10
2019-04-03T12:50:27.597Z,47.80
2019-04-03T12:52:57.725Z,47.80
2019-04-03T12:55:27.423Z,49.10
2019-04-03T12:58:00.396Z,49.80
2019-04-03T13:00:30.512Z,48.50
2019-04-03T13:03:00.245Z,46.80
2019-04-03T13:05:29.846Z,47.30
2019-04-03T13:08:00.320Z,47.30
2019-04-03T13:10:40.283Z,47.00
2019-04-03T13:13:01.554Z,47.60
2019-04-03T13:15:31.168Z,45.80
2019-04-03T13:18:00.858Z,45.50
2019-04-03T13:20:30.953Z,46.40
2019-04-03T13:23:00.604Z,45.30
2019-04-03T13:25:30.313Z,44.60
2019-04-03T13:28:03.200Z,45.20
2019-04-03T13:30:31.162Z,45.40
2019-04-03T13:33:05.389Z,46.30
2019-04-03T13:35:32.084Z,46.40
2019-04-03T13:38:01.741Z,45.90
2019-04-03T13:40:31.330Z,45.80
2019-04-03T13:43:00.939Z,44.90
2019-04-03T13:45:31.031Z,45.00
2019-04-03T13:48:03.240Z,44.30
2019-04-03T13:50:33.694Z,44.10
2019-04-03T13:53:03.637Z,44.30
2019-04-03T13:55:34.547Z,44.40
2019-04-03T13:58:04.417Z,45.20
2019-04-03T14:00:34.492Z,46.50
2019-04-03T14:03:04.131Z,47.60
2019-04-03T14:05:33.854Z,46.10
2019-04-03T14:08:06.035Z,45.20
2019-04-03T14:10:35.264Z,45.40
2019-04-03T14:13:04.922Z,45.80
2019-04-03T14:15:34.479Z,46.00
2019-04-03T14:18:04.137Z,46.50
2019-04-03T14:20:33.754Z,46.20
2019-04-03T14:23:04.096Z,45.40
2019-04-03T14:25:37.808Z,46.70
2019-04-03T14:28:05.947Z,45.90
2019-04-03T14:30:36.005Z,45.70
2019-04-03T14:33:05.608Z,46.10
2019-04-03T14:35:50.389Z,46.50
2019-04-03T14:38:06.603Z,46.20
2019-04-03T14:40:36.306Z,46.70
2019-04-03T14:43:06.218Z,47.10
2019-04-03T14:45:38.650Z,46.30
2019-04-03T14:48:07.685Z,46.10
2019-04-03T14:50:38.351Z,46.80
2019-04-03T14:53:08.582Z,46.50
2019-04-03T14:55:47.099Z,47.10
2019-04-03T14:58:09.864Z,47.20
2019-04-03T15:00:39.556Z,48.60
2019-04-03T15:03:09.340Z,46.70
2019-04-03T15:05:41.270Z,47.50
2019-04-03T15:08:10.675Z,47.00
2019-04-03T15:10:40.455Z,46.50
2019-04-03T15:13:12.629Z,46.20
2019-04-03T15:15:41.419Z,44.90
2019-04-03T15:18:11.358Z,45.40
2019-04-03T15:20:41.254Z,44.30
2019-04-03T15:23:10.927Z,44.70
2019-04-03T15:25:42.632Z,45.60
2019-04-03T15:28:11.792Z,44.80
2019-04-03T15:30:43.096Z,45.80
2019-04-03T15:33:12.739Z,45.40
2019-04-03T15:35:42.511Z,46.10
2019-04-03T15:38:13.302Z,46.20
2019-04-03T15:40:43.539Z,46.40
2019-04-03T15:43:15.962Z,47.30
2019-04-03T15:45:44.522Z,48.00
2019-04-03T15:48:14.148Z,48.80
2019-04-03T15:50:44.208Z,50.00
2019-04-03T15:53:13.846Z,49.40
2019-04-03T15:55:43.462Z,48.10
2019-04-03T15:58:13.124Z,48.70
2019-04-03T16:00:43.341Z,49.70
2019-04-03T16:03:14.769Z,49.90
2019-04-03T16:05:44.614Z,50.30
2019-04-03T16:08:14.257Z,50.20
2019-04-03T16:10:44.209Z,49.80
2019-04-03T16:13:15.816Z,50.20
2019-04-03T16:15:45.107Z,49.50
2019-04-03T16:18:14.766Z,50.30
2019-04-03T16:20:44.714Z,50.50
2019-04-03T16:23:14.998Z,51.50
2019-04-03T16:25:45.032Z,57.60
2019-04-03T16:28:15.087Z,52.00
2019-04-03T16:30:47.366Z,52.40
2019-04-03T16:33:21.513Z,53.50
2019-04-03T16:35:47.492Z,55.40
2019-04-03T16:38:17.697Z,55.90
2019-04-03T16:40:47.538Z,56.40
2019-04-03T16:43:17.272Z,56.90
2019-04-03T16:45:47.679Z,57.40
2019-04-03T16:48:18.199Z,57.30
2019-04-03T16:50:48.676Z,58.30
2019-04-03T16:53:20.518Z,58.90
2019-04-03T16:55:51.288Z,59.70
2019-04-03T16:58:20.880Z,60.40
2019-04-03T17:00:50.583Z,61.60
2019-04-03T17:03:20.215Z,62.50
2019-04-03T17:05:49.897Z,63.50
2019-04-03T17:08:19.521Z,64.50
2019-04-03T17:10:49.190Z,65.40
2019-04-03T17:13:21.009Z,66.10
2019-04-03T17:15:50.174Z,67.00
2019-04-03T17:18:19.836Z,67.90
2019-04-03T17:20:50.557Z,68.70
2019-04-03T17:23:20.317Z,69.40
2019-04-03T17:25:51.450Z,70.00
2019-04-03T17:28:21.358Z,70.50
2019-04-03T17:30:51.594Z,70.70
2019-04-03T17:33:22.234Z,71.10
2019-04-03T17:35:52.159Z,72.10
2019-04-03T17:38:21.765Z,72.50
2019-04-03T17:40:51.450Z,73.20
2019-04-03T17:43:22.110Z,73.70
2019-04-03T17:45:51.703Z,74.20
2019-04-03T17:48:24.510Z,74.90
2019-04-03T17:50:52.545Z,75.50
2019-04-03T17:53:22.143Z,76.10
2019-04-03T17:55:52.768Z,76.60
2019-04-03T17:58:22.348Z,77.30
2019-04-03T18:00:52.574Z,77.90
2019-04-03T18:03:22.367Z,78.40
2019-04-03T18:05:56.674Z,79.50
2019-04-03T18:08:25.582Z,80.00
2019-04-03T18:10:55.241Z,80.20
2019-04-03T18:13:24.896Z,81.00
2019-04-03T18:15:54.579Z,81.50
2019-04-03T18:18:24.181Z,82.20
2019-04-03T18:20:53.772Z,82.90
2019-04-03T18:23:23.446Z,83.40
2019-04-03T18:25:54.841Z,84.30
2019-04-03T18:28:24.488Z,84.40
2019-04-03T18:30:54.139Z,84.70
2019-04-03T18:33:23.765Z,85.00
2019-04-03T18:35:56.511Z,84.60
2019-04-03T18:38:27.600Z,84.80
2019-04-03T18:40:57.234Z,85.00
2019-04-03T18:43:26.834Z,85.20
2019-04-03T18:45:59.993Z,85.40
2019-04-03T18:48:27.899Z,85.50
2019-04-03T18:50:57.509Z,86.00
2019-04-03T18:53:27.160Z,86.00
2019-04-03T18:55:56.813Z,86.10
2019-04-03T18:58:26.543Z,86.00
2019-04-03T19:00:56.264Z,86.40
2019-04-03T19:03:25.937Z,86.50
2019-04-03T19:05:55.701Z,86.70
2019-04-03T19:08:25.272Z,86.60
2019-04-03T19:11:02.102Z,86.50
2019-04-03T19:13:26.302Z,86.00
2019-04-03T19:15:55.973Z,85.90
2019-04-03T19:18:25.639Z,86.20
2019-04-03T19:20:55.256Z,85.70
2019-04-03T19:23:25.073Z,85.70
2019-04-03T19:25:58.123Z,85.90
2019-04-03T19:28:28.839Z,86.20
2019-04-03T19:30:58.496Z,86.30
2019-04-03T19:33:29.241Z,87.00
2019-04-03T19:35:59.354Z,86.50
2019-04-03T19:38:29.153Z,86.70
2019-04-03T19:40:58.946Z,86.80
2019-04-03T19:43:28.817Z,87.20
2019-04-03T19:45:59.627Z,87.40
2019-04-03T19:48:29.397Z,87.70
2019-04-03T19:50:59.240Z,87.40
2019-04-03T19:53:28.926Z,87.40
2019-04-03T19:55:58.633Z,87.60
2019-04-03T19:58:29.626Z,88.40
2019-04-03T20:00:59.599Z,89.10
2019-04-03T20:03:29.183Z,89.90
2019-04-03T20:05:58.839Z,90.10
2019-04-03T20:08:30.041Z,90.10
2019-04-03T20:10:59.974Z,90.20
2019-04-03T20:13:29.589Z,90.30
2019-04-03T20:15:59.421Z,90.30
2019-04-03T20:18:29.405Z,90.50
2019-04-03T20:20:58.996Z,90.50
2019-04-03T20:23:30.184Z,90.60
2019-04-03T20:26:10.539Z,90.60
2019-04-03T20:28:40.137Z,90.70
2019-04-03T20:31:09.847Z,90.90
2019-04-03T20:33:42.952Z,91.00
2019-04-03T20:36:12.594Z,91.00
2019-04-03T20:38:42.282Z,91.00
2019-04-03T20:41:11.889Z,91.00
2019-04-03T20:43:43.256Z,90.90
2019-04-03T20:46:12.801Z,91.00
2019-04-03T20:48:42.578Z,91.00
2019-04-03T20:51:12.373Z,91.00
2019-04-03T20:53:42.061Z,91.30
2019-04-03T20:56:11.824Z,91.60
2019-04-03T20:58:55.397Z,91.80
2019-04-03T21:01:13.093Z,92.00
2019-04-03T21:03:43.771Z,92.10
2019-04-03T21:06:13.848Z,92.30
2019-04-03T21:08:43.485Z,92.30
2019-04-03T21:11:13.109Z,92.30
2019-04-03T21:13:42.806Z,92.30
2019-04-03T21:16:14.922Z,92.20
2019-04-03T21:18:44.630Z,92.10
2019-04-03T21:21:19.026Z,92.10
2019-04-03T21:23:48.955Z,92.10
2019-04-03T21:26:18.870Z,92.00
2019-04-03T21:28:48.901Z,91.90
2019-04-03T21:31:18.598Z,91.80
2019-04-03T21:33:48.515Z,91.70
2019-04-03T21:36:18.438Z,91.50
2019-04-03T21:38:48.022Z,91.40
2019-04-03T21:41:20.350Z,91.40
2019-04-03T21:43:49.061Z,91.30
2019-04-03T21:46:18.700Z,91.20
2019-04-03T21:48:48.353Z,91.20
2019-04-03T21:51:20.532Z,91.30
2019-04-03T21:53:49.273Z,91.30
2019-04-03T21:56:18.937Z,91.10
2019-04-03T21:58:48.651Z,90.90
2019-04-03T22:01:22.557Z,90.70
2019-04-03T22:03:52.976Z,90.50
2019-04-03T22:06:26.744Z,90.40
2019-04-03T22:08:55.250Z,90.70
2019-04-03T22:11:25.725Z,90.90
2019-04-03T22:13:57.113Z,91.00
2019-04-03T22:16:27.132Z,91.10
2019-04-03T22:18:57.577Z,91.20
2019-04-03T22:21:27.264Z,91.30
2019-04-03T22:23:56.918Z,91.50
2019-04-03T22:26:26.696Z,91.60
2019-04-03T22:28:56.358Z,91.70
2019-04-03T22:31:26.048Z,91.70
2019-04-03T22:33:56.993Z,91.80
2019-04-03T22:36:26.980Z,91.80
2019-04-03T22:38:56.612Z,91.80
2019-04-03T22:41:26.318Z,91.80
2019-04-03T22:43:55.837Z,91.70
2019-04-03T22:46:25.416Z,91.70
2019-04-03T22:48:54.918Z,91.60
2019-04-03T22:51:24.488Z,91.60
2019-04-03T22:53:53.997Z,91.70
2019-04-03T22:56:23.530Z,91.70
2019-04-03T22:58:53.466Z,91.70
2019-04-03T23:01:22.991Z,91.70
2019-04-03T23:03:52.564Z,91.70
2019-04-03T23:06:22.233Z,91.80
2019-04-03T23:08:51.828Z,91.80
2019-04-03T23:11:22.985Z,91.70
2019-04-03T23:13:52.587Z,91.70
2019-04-03T23:16:22.167Z,91.60
2019-04-03T23:18:51.754Z,91.60
2019-04-03T23:21:23.459Z,91.70
2019-04-03T23:23:52.571Z,91.90
2019-04-03T23:26:22.127Z,92.00
2019-04-03T23:28:51.704Z,92.10
2019-04-03T23:31:21.320Z,92.30
2019-04-03T23:33:50.863Z,92.50
2019-04-03T23:36:36.751Z,92.60
2019-04-03T23:39:08.727Z,92.80
2019-04-03T23:41:38.385Z,93.00
2019-04-03T23:44:10.703Z,93.00
2019-04-03T23:46:39.573Z,93.20
2019-04-03T23:49:09.379Z,93.30
2019-04-03T23:51:38.966Z,93.30
2019-04-03T23:54:08.535Z,93.40
2019-04-03T23:56:38.893Z,93.50
2019-04-03T23:59:09.028Z,93.70
